Time;durP1;ratioP1;P1;durP2;ratioP2;P2;SDS_P1;SDS_P2;PMS_P1;PMS_P2;Temp;Humidity;BMP_temperature;BMP_pressure;BME280_temperature;BME280_humidity;BME280_pressure;Samples;Min_cycle;Max_cycle;Signal;HPM_P1;HPM_P2
2023/10/28 00:00:30;;;;;;;47.20;26.13;;;10.30;98.60;;;;;;5079866;28;20043;-81
2023/10/28 00:02:56;;;;;;;49.58;27.20;;;10.30;98.60;;;;;;5096256;28;20048;-80
2023/10/28 00:05:24;;;;;;;47.30;25.58;;;10.30;98.70;;;;;;5096493;28;20048;-80
2023/10/28 00:07:50;;;;;;;41.55;24.58;;;10.30;98.60;;;;;;5096761;28;20035;-80
2023/10/28 00:10:18;;;;;;;42.90;26.65;;;10.30;98.60;;;;;;5079820;28;20032;-82
2023/10/28 00:12:44;;;;;;;46.05;27.27;;;10.40;98.50;;;;;;5096681;28;20043;-82
2023/10/28 00:15:10;;;;;;;42.97;26.67;;;10.40;98.60;;;;;;5079482;28;20070;-81
2023/10/28 00:17:37;;;;;;;49.92;28.33;;;10.30;98.50;;;;;;5113084;28;20384;-81
2023/10/28 00:20:05;;;;;;;50.90;27.50;;;10.30;98.50;;;;;;5079503;28;20114;-81
2023/10/28 00:22:33;;;;;;;44.78;27.13;;;10.30;98.60;;;;;;5079778;28;20079;-81
2023/10/28 00:24:59;;;;;;;49.20;28.65;;;10.30;98.50;;;;;;5062983;28;20388;-82
2023/10/28 00:27:25;;;;;;;52.10;29.58;;;10.30;98.50;;;;;;5079640;28;20046;-81
2023/10/28 00:29:54;;;;;;;56.45;30.67;;;10.30;98.50;;;;;;5079282;28;20040;-80
2023/10/28 00:32:22;;;;;;;55.45;31.00;;;10.30;98.60;;;;;;5063236;28;20205;-81
2023/10/28 00:34:49;;;;;;;49.40;29.75;;;10.20;98.60;;;;;;5079853;28;20505;-82
2023/10/28 00:37:15;;;;;;;49.58;27.92;;;10.30;98.50;;;;;;5096030;28;20035;-80
2023/10/28 00:39:46;;;;;;;55.80;29.50;;;10.20;98.50;;;;;;5096156;28;20043;-81
2023/10/28 00:42:17;;;;;;;48.92;28.58;;;10.20;98.40;;;;;;5112791;28;20046;-80
2023/10/28 00:44:43;;;;;;;49.42;29.52;;;10.20;98.50;;;;;;5095863;28;20545;-82
2023/10/28 00:47:09;;;;;;;57.97;32.53;;;10.20;98.40;;;;;;5096267;28;20037;-81
2023/10/28 00:49:36;;;;;;;50.15;29.38;;;10.10;98.40;;;;;;5079082;28;20035;-81
2023/10/28 00:52:01;;;;;;;53.63;30.77;;;10.10;98.40;;;;;;5079292;28;20031;-80
2023/10/28 00:54:28;;;;;;;61.33;32.92;;;10.10;98.40;;;;;;5112919;28;20532;-81
2023/10/28 00:56:55;;;;;;;54.25;30.92;;;10.10;98.40;;;;;;5062433;28;20047;-81
2023/10/28 00:59:20;;;;;;;56.95;31.70;;;10.10;98.40;;;;;;5079034;28;20047;-81
2023/10/28 01:01:46;;;;;;;54.58;30.80;;;10.10;98.40;;;;;;5078642;28;20455;-82
2023/10/28 01:04:12;;;;;;;59.05;33.38;;;10.00;98.40;;;;;;5079206;28;20035;-82
2023/10/28 01:06:38;;;;;;;56.30;31.50;;;10.10;98.40;;;;;;5078930;28;20402;-82
2023/10/28 01:09:04;;;;;;;51.95;30.15;;;10.00;98.40;;;;;;5112948;28;20036;-81
2023/10/28 01:11:31;;;;;;;54.15;30.98;;;10.00;98.40;;;;;;5095989;28;20052;-81
2023/10/28 01:13:56;;;;;;;60.75;31.98;;;10.00;98.40;;;;;;5095631;28;20044;-82
2023/10/28 01:16:22;;;;;;;51.55;30.20;;;10.00;98.40;;;;;;5062133;28;20043;-82
2023/10/28 01:18:57;;;;;;;57.85;31.98;;;10.00;98.30;;;;;;5095880;28;20520;-81
2023/10/28 01:21:23;;;;;;;54.38;30.48;;;10.00;98.30;;;;;;5078999;28;20044;-82
2023/10/28 01:23:49;;;;;;;69.43;33.50;;;9.90;98.30;;;;;;5095596;28;20398;-82
2023/10/28 01:26:15;;;;;;;64.97;32.53;;;9.90;98.30;;;;;;5095471;28;20490;-81
2023/10/28 01:28:41;;;;;;;57.88;32.45;;;9.90;98.40;;;;;;5062057;28;20032;-80
2023/10/28 01:31:08;;;;;;;58.88;31.23;;;9.90;98.40;;;;;;5095325;28;20035;-81
2023/10/28 01:33:34;;;;;;;63.17;31.55;;;9.80;98.30;;;;;;5078663;28;20082;-81
2023/10/28 01:36:00;;;;;;;59.80;32.65;;;9.80;98.40;;;;;;5078775;28;20471;-81
2023/10/28 01:38:26;;;;;;;65.03;33.67;;;9.80;98.30;;;;;;5078827;28;20047;-82
2023/10/28 01:40:52;;;;;;;46.08;28.80;;;9.80;98.30;;;;;;5095299;28;20039;-82
2023/10/28 01:43:19;;;;;;;57.60;31.60;;;9.80;98.30;;;;;;5112211;28;20079;-81
2023/10/28 01:45:45;;;;;;;52.35;30.90;;;9.80;98.30;;;;;;5065843;28;20039;-80
2023/10/28 01:48:12;;;;;;;59.53;31.20;;;9.80;98.30;;;;;;5099607;28;20399;-82
2023/10/28 01:50:38;;;;;;;57.95;30.50;;;9.80;98.30;;;;;;5099209;28;20035;-81
2023/10/28 01:53:03;;;;;;;49.90;29.05;;;9.80;98.30;;;;;;5082553;28;20040;-82
2023/10/28 01:55:29;;;;;;;60.33;31.90;;;9.80;98.30;;;;;;5099325;28;20038;-82
2023/10/28 01:57:56;;;;;;;60.60;31.77;;;9.80;98.40;;;;;;5082131;28;20039;-82
2023/10/28 02:00:22;;;;;;;61.35;32.08;;;9.80;98.30;;;;;;5098994;28;20501;-81
2023/10/28 02:02:50;;;;;;;55.35;31.30;;;9.80;98.30;;;;;;5115928;28;20048;-81
2023/10/28 02:05:16;;;;;;;57.05;30.98;;;9.80;98.30;;;;;;5082232;28;20035;-82
2023/10/28 02:07:42;;;;;;;48.58;27.83;;;9.70;98.30;;;;;;5098877;28;20035;-80
2023/10/28 02:10:09;;;;;;;49.90;27.92;;;9.70;98.30;;;;;;5082183;28;20031;-81
2023/10/28 02:12:35;;;;;;;45.65;28.25;;;9.70;98.30;;;;;;5082288;28;20395;-81
2023/10/28 02:15:06;;;;;;;51.80;29.08;;;9.70;98.20;;;;;;5115603;28;20050;-81
2023/10/28 02:17:32;;;;;;;51.72;28.85;;;9.70;98.30;;;;;;5082117;28;20552;-82
2023/10/28 02:19:58;;;;;;;41.15;25.17;;;9.60;98.30;;;;;;5098579;28;20122;-80
2023/10/28 02:22:24;;;;;;;48.28;26.13;;;9.60;98.20;;;;;;5098673;28;20122;-82
2023/10/28 02:24:50;;;;;;;46.20;26.15;;;9.60;98.20;;;;;;5081896;28;20440;-82
2023/10/28 02:27:15;;;;;;;42.42;25.65;;;9.60;98.20;;;;;;5081712;28;20040;-82
2023/10/28 02:29:41;;;;;;;47.90;26.00;;;9.60;98.20;;;;;;5081667;28;20080;-82
2023/10/28 02:32:08;;;;;;;48.67;26.48;;;9.50;98.10;;;;;;5081409;28;20035;-81
2023/10/28 02:34:34;;;;;;;45.83;25.95;;;9.50;98.20;;;;;;5115511;28;20043;-82
2023/10/28 02:37:01;;;;;;;44.97;24.55;;;9.50;98.20;;;;;;5115259;28;20081;-81
2023/10/28 02:39:26;;;;;;;44.60;25.23;;;9.50;98.20;;;;;;5115279;28;20044;-81
2023/10/28 02:41:53;;;;;;;42.83;26.02;;;9.50;98.20;;;;;;5064878;28;20040;-81
2023/10/28 02:44:19;;;;;;;41.67;24.80;;;9.40;98.10;;;;;;5081706;28;20368;-82
2023/10/28 02:46:45;;;;;;;43.17;24.80;;;9.40;98.10;;;;;;5098214;28;20027;-81
2023/10/28 02:49:14;;;;;;;46.95;27.00;;;9.40;98.10;;;;;;5098244;28;20047;-80
2023/10/28 02:51:39;;;;;;;46.10;25.67;;;9.30;98.00;;;;;;5081615;28;20509;-80
2023/10/28 02:54:05;;;;;;;41.95;23.50;;;9.30;98.00;;;;;;5081118;28;20112;-82
2023/10/28 02:56:31;;;;;;;36.67;22.88;;;9.20;98.00;;;;;;5114362;28;20104;-82
2023/10/28 02:58:57;;;;;;;37.40;21.65;;;9.20;98.00;;;;;;5114703;28;20418;-80
2023/10/28 03:01:23;;;;;;;42.00;24.50;;;9.10;98.10;;;;;;5114531;28;20044;-82
2023/10/28 03:03:49;;;;;;;38.00;23.13;;;9.10;98.00;;;;;;5114724;28;20096;-81
2023/10/28 03:06:15;;;;;;;40.17;22.23;;;9.10;98.10;;;;;;5097779;28;20035;-81
2023/10/28 03:08:41;;;;;;;37.60;21.33;;;9.10;98.00;;;;;;5098044;28;20040;-83
2023/10/28 03:11:07;;;;;;;40.90;22.75;;;9.10;98.00;;;;;;5081106;28;20039;-84
2023/10/28 03:13:33;;;;;;;37.28;22.38;;;9.00;98.00;;;;;;5114550;28;20039;-82
2023/10/28 03:15:58;;;;;;;36.03;21.73;;;9.00;98.00;;;;;;5080851;28;20039;-80
2023/10/28 03:18:28;;;;;;;32.88;20.80;;;9.00;98.00;;;;;;5064061;28;20042;-81
2023/10/28 03:20:56;;;;;;;34.30;20.27;;;9.00;98.00;;;;;;5080710;28;20040;-80
2023/10/28 03:23:22;;;;;;;34.55;20.92;;;9.00;98.00;;;;;;5080738;28;20101;-81
2023/10/28 03:25:47;;;;;;;35.05;20.88;;;9.00;97.90;;;;;;5080598;28;20500;-81
2023/10/28 03:28:13;;;;;;;37.42;20.08;;;9.00;97.90;;;;;;5080803;28;20130;-81
2023/10/28 03:30:39;;;;;;;34.35;20.08;;;8.90;97.90;;;;;;5080504;28;20476;-81
2023/10/28 03:33:04;;;;;;;31.30;19.13;;;8.80;97.80;;;;;;5097201;28;20122;-80
2023/10/28 03:35:30;;;;;;;32.35;19.45;;;8.80;97.80;;;;;;5080329;28;20043;-80
2023/10/28 03:37:56;;;;;;;31.20;19.60;;;8.70;97.70;;;;;;5080322;28;20039;-79
2023/10/28 03:40:21;;;;;;;29.60;17.70;;;8.70;97.70;;;;;;5097366;28;20044;-81
2023/10/28 03:42:47;;;;;;;32.00;18.50;;;8.70;97.70;;;;;;5097140;28;20442;-82
2023/10/28 03:45:14;;;;;;;32.13;17.85;;;8.60;97.70;;;;;;5113792;28;20040;-82
2023/10/28 03:47:40;;;;;;;29.80;17.98;;;8.60;97.70;;;;;;5113993;28;20051;-81
2023/10/28 03:50:06;;;;;;;25.90;16.70;;;8.60;97.70;;;;;;5080289;28;20602;-81
2023/10/28 03:52:32;;;;;;;27.42;17.35;;;8.50;97.50;;;;;;5080211;28;20475;-81
2023/10/28 03:54:58;;;;;;;26.80;16.48;;;8.50;97.60;;;;;;5080321;28;20062;-82
2023/10/28 03:57:26;;;;;;;31.38;17.48;;;8.40;97.70;;;;;;5096730;28;20480;-81
2023/10/28 03:59:53;;;;;;;31.77;17.73;;;8.40;97.70;;;;;;5064203;28;20047;-80
2023/10/28 04:02:18;;;;;;;28.75;17.65;;;8.40;97.70;;;;;;5096556;28;20058;-81
2023/10/28 04:04:45;;;;;;;35.63;17.27;;;8.30;97.70;;;;;;5113520;28;20040;-80
2023/10/28 04:07:11;;;;;;;30.20;17.73;;;8.30;97.70;;;;;;5095890;28;20088;-82
2023/10/28 04:09:39;;;;;;;27.45;16.88;;;8.20;97.70;;;;;;5096612;28;20122;-81
2023/10/28 04:12:05;;;;;;;25.23;16.33;;;8.20;97.70;;;;;;5096932;28;20036;-81
2023/10/28 04:14:35;;;;;;;21.50;15.05;;;8.20;97.70;;;;;;5113346;28;20047;-81
2023/10/28 04:17:03;;;;;;;29.63;17.48;;;8.20;97.80;;;;;;5113340;28;20039;-80
2023/10/28 04:19:29;;;;;;;26.10;16.02;;;8.20;97.80;;;;;;5096439;28;20100;-81
2023/10/28 04:21:55;;;;;;;26.60;15.90;;;8.10;97.70;;;;;;5096198;28;20069;-80
2023/10/28 04:24:22;;;;;;;28.95;17.40;;;8.10;97.70;;;;;;5096621;28;20036;-80
2023/10/28 04:26:47;;;;;;;24.90;14.15;;;8.10;97.70;;;;;;5096244;28;20127;-81
2023/10/28 04:29:13;;;;;;;24.70;16.42;;;8.10;97.70;;;;;;5062595;28;20458;-81
2023/10/28 04:31:39;;;;;;;26.30;15.57;;;8.00;97.70;;;;;;5062651;28;20042;-81
2023/10/28 04:34:05;;;;;;;30.15;16.60;;;8.00;97.70;;;;;;5096230;28;20453;-81
2023/10/28 04:36:31;;;;;;;25.35;15.25;;;8.00;97.70;;;;;;5079548;28;20388;-80
2023/10/28 04:38:57;;;;;;;23.23;14.32;;;8.00;97.70;;;;;;5113321;28;20050;-80
2023/10/28 04:41:22;;;;;;;27.17;15.00;;;7.90;97.80;;;;;;5096013;28;20522;-80
2023/10/28 04:43:48;;;;;;;22.27;13.95;;;7.90;97.80;;;;;;5062744;28;20031;-80
2023/10/28 04:46:15;;;;;;;31.80;17.20;;;7.90;97.90;;;;;;5096002;28;20078;-81
2023/10/28 04:48:42;;;;;;;22.00;14.30;;;7.90;97.90;;;;;;5096368;28;20043;-81
2023/10/28 04:51:08;;;;;;;24.45;15.60;;;8.00;97.90;;;;;;5079892;28;20028;-81
2023/10/28 04:53:34;;;;;;;28.45;16.38;;;7.90;98.00;;;;;;5078853;28;20440;-81
2023/10/28 04:56:00;;;;;;;31.30;16.67;;;8.00;98.00;;;;;;5113001;28;20377;-81
2023/10/28 04:58:27;;;;;;;30.73;16.83;;;7.90;98.00;;;;;;5112977;28;20487;-81
2023/10/28 05:00:54;;;;;;;29.23;16.13;;;8.00;98.00;;;;;;5096005;28;20058;-82
2023/10/28 05:03:19;;;;;;;25.80;16.00;;;8.00;98.00;;;;;;5102651;28;20050;-79
2023/10/28 05:05:46;;;;;;;29.73;17.02;;;8.00;98.00;;;;;;5092196;28;20408;-80
2023/10/28 05:08:13;;;;;;;33.63;18.30;;;8.00;98.00;;;;;;5092998;28;20440;-82
2023/10/28 05:10:39;;;;;;;40.85;18.67;;;8.00;98.00;;;;;;5075697;28;20367;-81
2023/10/28 05:13:05;;;;;;;31.58;17.73;;;8.10;98.10;;;;;;5075467;28;20042;-80
2023/10/28 05:15:30;;;;;;;39.97;18.77;;;8.10;98.10;;;;;;5092223;28;20050;-81
2023/10/28 05:17:56;;;;;;;29.63;18.15;;;8.10;98.10;;;;;;5059925;28;20400;-81
2023/10/28 05:20:22;;;;;;;31.95;19.02;;;8.10;98.10;;;;;;5096523;28;20046;-80
2023/10/28 05:22:47;;;;;;;37.03;22.30;;;8.10;98.10;;;;;;5096236;28;20468;-80
2023/10/28 05:25:13;;;;;;;38.42;25.08;;;8.20;98.20;;;;;;5046349;28;20040;-81
2023/10/28 05:27:39;;;;;;;46.17;27.00;;;8.10;98.20;;;;;;5096515;28;20040;-81
2023/10/28 05:30:06;;;;;;;34.30;22.35;;;8.10;98.20;;;;;;5046482;28;20062;-81
2023/10/28 05:32:31;;;;;;;32.80;22.60;;;8.20;98.10;;;;;;5079298;28;20044;-81
2023/10/28 05:34:58;;;;;;;43.67;24.55;;;8.20;98.20;;;;;;5079204;28;20089;-80
2023/10/28 05:37:23;;;;;;;36.72;20.42;;;8.20;98.20;;;;;;5078778;28;20051;-81
2023/10/28 05:39:50;;;;;;;35.25;21.10;;;8.20;98.20;;;;;;5100227;28;20040;-81
2023/10/28 05:42:16;;;;;;;40.45;22.83;;;8.20;98.20;;;;;;5096829;28;20051;-81
2023/10/28 05:44:43;;;;;;;32.47;19.52;;;8.30;98.20;;;;;;5096333;28;20189;-81
2023/10/28 05:47:10;;;;;;;34.60;19.92;;;8.30;98.20;;;;;;5062743;28;20036;-81
2023/10/28 05:49:36;;;;;;;41.95;22.52;;;8.30;98.20;;;;;;5078914;28;20036;-81
2023/10/28 05:52:02;;;;;;;38.15;24.13;;;8.30;98.30;;;;;;5078936;28;20062;-80
2023/10/28 05:54:27;;;;;;;41.20;23.08;;;8.30;98.30;;;;;;5062372;28;20038;-81
2023/10/28 05:56:54;;;;;;;37.17;21.67;;;8.40;98.40;;;;;;5062131;28;20472;-82
2023/10/28 05:59:20;;;;;;;49.30;24.20;;;8.40;98.30;;;;;;5079136;28;20082;-80
2023/10/28 06:01:46;;;;;;;33.10;19.92;;;8.40;98.30;;;;;;5061762;28;20500;-81
2023/10/28 06:04:11;;;;;;;34.33;20.58;;;8.40;98.30;;;;;;5078529;28;20043;-81
2023/10/28 06:06:37;;;;;;;40.50;20.05;;;8.40;98.30;;;;;;5061984;28;20032;-82
2023/10/28 06:09:03;;;;;;;32.45;18.55;;;8.30;98.30;;;;;;5078519;28;20044;-81
2023/10/28 06:11:29;;;;;;;35.58;19.95;;;8.30;98.40;;;;;;5062481;28;20079;-82
2023/10/28 06:13:55;;;;;;;36.97;20.52;;;8.40;98.30;;;;;;5045138;28;20404;-82
2023/10/28 06:16:21;;;;;;;49.67;22.35;;;8.50;98.40;;;;;;5078743;28;20092;-82
2023/10/28 06:18:47;;;;;;;43.05;22.33;;;8.50;98.50;;;;;;5078547;28;20645;-82
2023/10/28 06:21:16;;;;;;;47.63;20.98;;;8.60;98.40;;;;;;5078245;28;20086;-81
2023/10/28 06:23:42;;;;;;;45.40;23.05;;;8.60;98.50;;;;;;5078640;28;20089;-81
2023/10/28 06:26:07;;;;;;;49.75;24.92;;;8.70;98.50;;;;;;5061451;28;20122;-81
2023/10/28 06:28:34;;;;;;;41.05;22.50;;;8.80;98.70;;;;;;5077868;28;20043;-80
2023/10/28 06:31:00;;;;;;;51.47;24.42;;;8.80;98.70;;;;;;5076924;28;20054;-82
2023/10/28 06:33:26;;;;;;;43.47;23.23;;;8.90;98.60;;;;;;5077435;28;20097;-82
2023/10/28 06:35:52;;;;;;;34.88;20.13;;;8.90;98.60;;;;;;5077827;28;20044;-82
2023/10/28 06:38:18;;;;;;;38.15;22.05;;;9.00;98.60;;;;;;5061775;28;20040;-81
2023/10/28 06:40:47;;;;;;;51.65;23.98;;;9.00;98.60;;;;;;5078100;28;20066;-81
2023/10/28 06:43:14;;;;;;;37.78;21.80;;;9.10;98.70;;;;;;5077792;28;20042;-82
2023/10/28 06:45:41;;;;;;;39.08;22.50;;;9.10;98.60;;;;;;5078122;28;20047;-81
2023/10/28 06:48:07;;;;;;;40.75;21.98;;;9.10;98.60;;;;;;5077861;28;20075;-82
2023/10/28 06:50:32;;;;;;;47.88;23.45;;;9.20;98.60;;;;;;5061150;28;20036;-81
2023/10/28 06:52:59;;;;;;;35.65;21.70;;;9.30;98.70;;;;;;5077670;28;20051;-81
2023/10/28 06:55:27;;;;;;;42.50;22.35;;;9.30;98.80;;;;;;5094515;28;20047;-82
2023/10/28 06:57:54;;;;;;;38.50;19.65;;;9.30;98.70;;;;;;5094882;28;20052;-81
2023/10/28 07:00:27;;;;;;;34.70;20.13;;;9.40;99.00;;;;;;5094508;28;20083;-82
2023/10/28 07:02:55;;;;;;;45.90;21.35;;;9.50;98.90;;;;;;5078485;28;20048;-82
2023/10/28 07:05:24;;;;;;;31.88;18.70;;;9.50;98.90;;;;;;5077689;28;20043;-83
2023/10/28 07:07:51;;;;;;;37.53;20.13;;;9.60;99.00;;;;;;5094290;28;20488;-84
2023/10/28 07:10:17;;;;;;;36.30;18.92;;;9.60;99.00;;;;;;5077458;28;20040;-83
2023/10/28 07:12:45;;;;;;;29.88;16.83;;;9.60;99.00;;;;;;5077786;28;20177;-82
2023/10/28 07:15:12;;;;;;;32.72;17.80;;;9.60;99.00;;;;;;5061073;28;20545;-80
2023/10/28 07:17:39;;;;;;;25.90;16.65;;;9.70;98.80;;;;;;5077447;28;20051;-82
2023/10/28 07:20:06;;;;;;;30.67;15.95;;;9.70;99.00;;;;;;5060958;28;20036;-81
2023/10/28 07:22:33;;;;;;;23.42;15.77;;;9.80;99.10;;;;;;5093751;28;20044;-81
2023/10/28 07:24:58;;;;;;;31.33;15.45;;;9.80;99.10;;;;;;5060642;28;20032;-82
2023/10/28 07:27:24;;;;;;;21.88;14.65;;;9.80;99.00;;;;;;5077344;28;20480;-82
2023/10/28 07:29:50;;;;;;;22.83;14.68;;;9.90;99.00;;;;;;5059730;28;20035;-82
2023/10/28 07:32:16;;;;;;;23.63;14.63;;;9.90;98.90;;;;;;5075213;28;20040;-80
2023/10/28 07:34:42;;;;;;;27.17;14.73;;;10.00;98.90;;;;;;5059305;28;20122;-80
2023/10/28 07:37:08;;;;;;;23.83;14.13;;;10.00;98.90;;;;;;5092642;28;20491;-80
2023/10/28 07:39:34;;;;;;;20.20;13.10;;;10.00;99.00;;;;;;5059069;28;20520;-81
2023/10/28 07:42:00;;;;;;;23.20;12.93;;;10.10;98.80;;;;;;5074616;28;20050;-81
2023/10/28 07:44:26;;;;;;;19.50;14.00;;;10.10;98.70;;;;;;5075627;28;20040;-81
2023/10/28 07:46:52;;;;;;;22.17;12.70;;;10.20;98.70;;;;;;5076203;28;20039;-81
2023/10/28 07:49:18;;;;;;;20.25;13.20;;;10.20;98.70;;;;;;5076640;28;20094;-82
2023/10/28 07:51:44;;;;;;;20.05;12.48;;;10.30;98.60;;;;;;5076612;28;20076;-82
2023/10/28 07:54:13;;;;;;;22.48;13.15;;;10.30;98.70;;;;;;5076091;28;20052;-81
2023/10/28 07:56:39;;;;;;;19.73;12.18;;;10.30;98.60;;;;;;5076513;28;20097;-83
2023/10/28 07:59:07;;;;;;;19.50;12.02;;;10.30;98.60;;;;;;5076094;28;20040;-82
2023/10/28 08:01:33;;;;;;;19.42;12.90;;;10.40;98.60;;;;;;5043244;28;20090;-82
2023/10/28 08:03:58;;;;;;;20.90;11.32;;;10.40;98.50;;;;;;5075918;28;20129;-82
2023/10/28 08:06:25;;;;;;;17.92;12.32;;;10.40;98.50;;;;;;5076220;28;20043;-82
2023/10/28 08:08:54;;;;;;;15.98;10.80;;;10.50;98.50;;;;;;5076068;28;20047;-82
2023/10/28 08:11:26;;;;;;;17.83;10.60;;;10.50;98.40;;;;;;5075736;28;20110;-82
2023/10/28 08:13:53;;;;;;;17.77;9.80;;;10.50;98.40;;;;;;5076115;28;20040;-82
2023/10/28 08:16:21;;;;;;;17.65;10.30;;;10.40;98.30;;;;;;5059572;28;20036;-82
2023/10/28 08:18:50;;;;;;;13.75;9.73;;;10.50;98.30;;;;;;5059121;28;20035;-81
2023/10/28 08:21:18;;;;;;;16.17;10.88;;;10.50;98.20;;;;;;5075786;28;20028;-82
2023/10/28 08:23:44;;;;;;;14.35;9.75;;;10.50;98.20;;;;;;5092681;28;20567;-82
2023/10/28 08:26:11;;;;;;;15.30;8.73;;;10.50;98.10;;;;;;5075810;28;20134;-82
2023/10/28 08:28:40;;;;;;;13.75;8.93;;;10.50;98.20;;;;;;5058878;28;20097;-81
2023/10/28 08:31:09;;;;;;;13.38;8.80;;;10.50;98.10;;;;;;5042146;28;20078;-83
2023/10/28 08:33:36;;;;;;;11.02;8.43;;;10.50;98.10;;;;;;5075450;28;20384;-82
2023/10/28 08:36:03;;;;;;;14.25;8.93;;;10.50;98.00;;;;;;5059495;28;20044;-83
2023/10/28 08:38:29;;;;;;;14.23;10.40;;;10.50;98.10;;;;;;5075639;28;20044;-82
2023/10/28 08:40:55;;;;;;;15.05;10.40;;;10.50;98.00;;;;;;5075325;28;20042;-83
2023/10/28 08:43:20;;;;;;;14.05;9.30;;;10.50;98.00;;;;;;5075207;28;20101;-82
2023/10/28 08:45:48;;;;;;;14.45;9.38;;;10.50;97.90;;;;;;5075420;28;20449;-83
2023/10/28 08:48:18;;;;;;;15.45;9.30;;;10.50;98.00;;;;;;5092315;28;20495;-83
2023/10/28 08:50:51;;;;;;;18.20;9.88;;;10.50;98.00;;;;;;5079575;28;20498;-83
2023/10/28 08:53:18;;;;;;;13.65;9.60;;;10.50;98.00;;;;;;5112180;28;20040;-83
2023/10/28 08:55:47;;;;;;;19.13;11.15;;;10.50;98.00;;;;;;5078759;28;20035;-83
2023/10/28 08:58:16;;;;;;;14.25;10.13;;;10.50;98.00;;;;;;5095473;28;20360;-82
2023/10/28 09:00:43;;;;;;;15.65;10.73;;;10.50;98.00;;;;;;5078676;28;20583;-82
2023/10/28 09:03:12;;;;;;;15.73;10.02;;;10.50;98.00;;;;;;5095317;28;20059;-83
2023/10/28 09:05:38;;;;;;;15.30;10.07;;;10.50;98.00;;;;;;5095285;28;20501;-82
2023/10/28 09:08:04;;;;;;;15.45;10.15;;;10.60;98.00;;;;;;5078406;28;20040;-83
2023/10/28 09:10:30;;;;;;;14.77;10.48;;;10.60;97.90;;;;;;5078574;28;20138;-82
2023/10/28 09:12:56;;;;;;;15.00;10.00;;;10.50;97.90;;;;;;5095358;28;20047;-83
2023/10/28 09:15:22;;;;;;;15.10;11.05;;;10.60;98.00;;;;;;5078241;28;20415;-83
2023/10/28 09:17:47;;;;;;;10.98;9.25;;;10.60;97.90;;;;;;5095090;28;20044;-83
2023/10/28 09:20:14;;;;;;;15.40;9.68;;;10.60;97.90;;;;;;5112000;28;20040;-84
2023/10/28 09:22:42;;;;;;;14.10;9.50;;;10.70;97.90;;;;;;5095539;28;20082;-83
2023/10/28 09:25:15;;;;;;;11.95;8.30;;;10.70;97.90;;;;;;5112296;28;20514;-83
2023/10/28 09:27:41;;;;;;;12.85;9.02;;;10.80;97.80;;;;;;5079383;28;20471;-81
2023/10/28 09:30:10;;;;;;;12.00;8.23;;;10.80;97.80;;;;;;5112475;28;20044;-82
2023/10/28 09:32:35;;;;;;;15.30;8.68;;;10.80;97.80;;;;;;5079525;28;20116;-82
2023/10/28 09:35:09;;;;;;;16.63;8.20;;;10.90;97.80;;;;;;5095326;28;20073;-82
2023/10/28 09:37:37;;;;;;;14.00;8.07;;;10.90;97.70;;;;;;5095442;28;20046;-82
2023/10/28 09:40:05;;;;;;;11.65;8.63;;;10.90;97.50;;;;;;5095290;28;20043;-82
2023/10/28 09:42:32;;;;;;;10.00;7.97;;;10.90;97.50;;;;;;5112572;28;20051;-83
2023/10/28 09:45:06;;;;;;;13.10;9.55;;;10.90;97.40;;;;;;5112286;28;20043;-83
2023/10/28 09:48:02;;;;;;;14.37;9.07;;;10.90;97.50;;;;;;5095866;28;20380;-83
2023/10/28 09:50:36;;;;;;;12.98;9.30;;;11.00;97.50;;;;;;5095963;28;20096;-82
2023/10/28 09:53:03;;;;;;;;;;;10.90;97.30;;;;;;5079684;28;20040;-83
2023/10/28 09:55:37;;;;;;;12.50;8.85;;;11.00;97.30;;;;;;5095401;28;19916;-83
2023/10/28 09:58:11;;;;;;;17.73;10.18;;;11.00;97.40;;;;;;5095153;28;20036;-82
2023/10/28 10:00:37;;;;;;;14.20;9.25;;;11.00;97.40;;;;;;5095215;28;20043;-83
2023/10/28 10:03:28;;;;;;;20.90;9.52;;;11.00;97.40;;;;;;5062065;28;20046;-83
2023/10/28 10:05:55;;;;;;;15.05;9.65;;;11.00;97.40;;;;;;5082816;28;20035;-83
2023/10/28 10:08:22;;;;;;;12.98;9.23;;;11.00;97.40;;;;;;5082065;28;20039;-84
2023/10/28 10:10:58;;;;;;;13.50;8.93;;;11.00;97.50;;;;;;5065283;28;20118;-84
2023/10/28 10:13:24;;;;;;;12.85;9.73;;;11.00;97.50;;;;;;5082268;28;20365;-83
2023/10/28 10:16:02;;;;;;;14.35;9.23;;;11.10;97.50;;;;;;5098794;28;20127;-84
2023/10/28 10:18:33;;;;;;;12.32;8.65;;;11.10;97.50;;;;;;5098902;28;20046;-84
2023/10/28 10:21:12;;;;;;;11.35;7.68;;;11.10;97.50;;;;;;5101365;28;20040;-83
2023/10/28 10:23:49;;;;;;;15.32;8.85;;;11.20;97.50;;;;;;5098379;28;20053;-83
2023/10/28 10:26:30;;;;;;;12.32;8.63;;;11.20;97.40;;;;;;5097699;28;20040;-84
2023/10/28 10:28:58;;;;;;;12.98;10.20;;;11.20;97.40;;;;;;5108760;28;20035;-82
2023/10/28 10:31:32;;;;;;;16.45;10.15;;;11.30;97.40;;;;;;5072472;28;20035;-82
2023/10/28 10:34:09;;;;;;;11.68;7.45;;;11.30;97.30;;;;;;5104413;28;20110;-83
2023/10/28 10:36:43;;;;;;;13.95;7.88;;;11.30;97.30;;;;;;5073494;28;20111;-83
2023/10/28 10:39:15;;;;;;;11.63;9.15;;;11.30;97.10;;;;;;5094152;28;20488;-82
2023/10/28 10:41:42;;;;;;;10.15;6.78;;;11.40;97.20;;;;;;5077853;28;20059;-83
2023/10/28 10:44:35;;;;;;;11.15;7.82;;;11.40;97.10;;;;;;5077608;28;20035;-84
2023/10/28 10:47:01;;;;;;;17.40;7.85;;;11.40;97.20;;;;;;5077724;28;20047;-83
2023/10/28 10:49:30;;;;;;;9.25;8.07;;;11.40;97.20;;;;;;5061193;28;20387;-83
2023/10/28 10:51:58;;;;;;;14.18;7.63;;;11.40;97.10;;;;;;5061524;28;20434;-84
2023/10/28 10:54:38;;;;;;;17.98;8.10;;;11.50;97.00;;;;;;5077863;28;20043;-83
2023/10/28 10:57:06;;;;;;;11.13;7.20;;;11.50;97.10;;;;;;5077686;28;20047;-82
2023/10/28 10:59:33;;;;;;;12.82;7.03;;;11.60;97.10;;;;;;5077238;28;20075;-82
2023/10/28 11:02:03;;;;;;;16.63;9.43;;;11.60;97.00;;;;;;5060545;28;20470;-82
2023/10/28 11:04:29;;;;;;;9.95;6.65;;;11.70;97.00;;;;;;5077792;28;20472;-83
2023/10/28 11:06:56;;;;;;;11.57;5.63;;;11.60;96.90;;;;;;5044841;28;20040;-82
2023/10/28 11:09:22;;;;;;;13.85;6.40;;;11.70;96.90;;;;;;5077490;28;20047;-83
2023/10/28 11:11:48;;;;;;;11.40;7.68;;;11.60;96.80;;;;;;5044129;28;20036;-83
2023/10/28 11:14:14;;;;;;;14.10;8.25;;;11.60;96.90;;;;;;5061076;28;20044;-83
2023/10/28 11:16:41;;;;;;;12.48;6.82;;;11.60;96.90;;;;;;5044100;28;20058;-84
2023/10/28 11:19:11;;;;;;;10.65;6.63;;;11.60;96.90;;;;;;5060762;28;20046;-83
2023/10/28 11:21:40;;;;;;;14.60;6.78;;;11.60;96.80;;;;;;5079686;28;20035;-83
2023/10/28 11:24:08;;;;;;;12.10;6.97;;;11.60;96.90;;;;;;5087765;28;20115;-83
2023/10/28 11:26:35;;;;;;;10.05;6.78;;;11.60;96.90;;;;;;5099112;28;20043;-83
2023/10/28 11:29:01;;;;;;;10.55;7.15;;;11.60;97.00;;;;;;5077272;28;20036;-83
2023/10/28 11:31:31;;;;;;;15.82;7.30;;;11.60;97.00;;;;;;5077099;28;20028;-83
2023/10/28 11:33:58;;;;;;;10.48;7.18;;;11.60;97.00;;;;;;5085405;28;20618;-83
2023/10/28 11:36:24;;;;;;;15.57;6.90;;;11.60;96.90;;;;;;5085418;28;20393;-82
2023/10/28 11:38:50;;;;;;;11.68;7.20;;;11.60;97.00;;;;;;5105018;28;20039;-83
2023/10/28 11:41:16;;;;;;;11.35;7.35;;;11.70;97.00;;;;;;5090412;28;20110;-83
2023/10/28 11:43:42;;;;;;;13.38;7.47;;;11.70;97.00;;;;;;5079820;28;20047;-83
2023/10/28 11:46:08;;;;;;;11.90;7.10;;;11.70;97.00;;;;;;5097124;28;20032;-84
2023/10/28 11:48:34;;;;;;;17.05;10.10;;;11.80;96.90;;;;;;5113526;28;20518;-83
2023/10/28 11:51:00;;;;;;;12.98;8.05;;;11.80;97.00;;;;;;5096558;28;20032;-83
2023/10/28 11:53:27;;;;;;;9.52;6.10;;;11.80;96.90;;;;;;5080627;28;20046;-83
2023/10/28 11:55:54;;;;;;;10.43;6.25;;;11.80;96.80;;;;;;5096397;28;20126;-83
2023/10/28 11:58:23;;;;;;;10.80;5.90;;;11.90;96.90;;;;;;5095856;28;20127;-83
2023/10/28 12:00:52;;;;;;;10.23;7.03;;;11.90;96.80;;;;;;5113311;28;20040;-81
2023/10/28 12:03:19;;;;;;;10.27;6.85;;;11.90;96.70;;;;;;5096279;28;20055;-83
2023/10/28 12:05:45;;;;;;;11.98;6.72;;;12.00;96.80;;;;;;5096613;28;20475;-82
2023/10/28 12:08:12;;;;;;;11.90;6.20;;;12.00;96.70;;;;;;5096776;28;20035;-83
2023/10/28 12:10:43;;;;;;;11.73;5.82;;;12.00;96.70;;;;;;5096662;28;20438;-82
2023/10/28 12:13:18;;;;;;;9.18;5.47;;;12.00;96.70;;;;;;5113525;28;20043;-83
2023/10/28 12:15:44;;;;;;;11.48;5.88;;;12.00;96.60;;;;;;5080404;28;20035;-83
2023/10/28 12:18:10;;;;;;;10.32;6.40;;;12.00;96.70;;;;;;5096793;28;20116;-83
2023/10/28 12:20:37;;;;;;;10.25;6.90;;;12.00;96.70;;;;;;5079741;28;20078;-83
2023/10/28 12:23:04;;;;;;;13.35;7.68;;;12.10;96.70;;;;;;5114083;28;20036;-84
2023/10/28 12:25:31;;;;;;;11.00;7.18;;;12.00;96.80;;;;;;5096276;28;20047;-83
2023/10/28 12:27:57;;;;;;;12.15;7.95;;;12.10;96.80;;;;;;5112840;28;20037;-83
2023/10/28 12:30:23;;;;;;;13.18;6.45;;;12.10;96.80;;;;;;5096449;28;20391;-83
2023/10/28 12:32:50;;;;;;;10.75;6.75;;;12.10;96.80;;;;;;5079364;28;20039;-84
2023/10/28 12:35:17;;;;;;;13.63;7.03;;;12.10;96.90;;;;;;5079473;28;20126;-83